Pagina principale
METAR-TAF:

METAR-TAF

Aeroporti :

Aeroporto di Zagabria-Franjo Tuđman

Zagabria, Croazia

latitudine: 45-44N, longitudine: 016-04E, altezza: 106 m

Osservazione

Il bollettino è stato emesso 18 minuti fa, alle 16:00 UTC
Vento 7 kt da est/sud-est, variando fra est/nord-est e sud/sud-est
Temperature 30°C
Umidità 46%
Pressione 1017 hPa
Visibilità 10 km o più
Poco nuvoloso ad un'altezza di 4500 ft, Cumulonembo.

METAR: LDZA 181600Z 11007KT 070V150 9999 FEW045CB 30/17 Q1017 NOSIG

Ora: 18:18 (16:18 UTC)

Previsione

Il bollettino è stato emesso 4 ore e 53 minuti fa, alle 11:25 UTC
Previsione valida dal 18 alle 12 UTC al 19 alle 12 UTC
Vento 5 kt da nord-est
Visibilità 10 km o più
nessuna nube inferiore a 1500 m e nessun cumulonembo
Probabilità 30% :
Temporaneamente
dal 18 alle 13 UTC al 18 alle 17 UTC
Poco nuvoloso ad un'altezza di 4500 ft, Cumulonembo.

TAF: LDZA 181125Z 1812/1912 05005KT CAVOK TX31/1813Z TN17/1903Z PROB30 TEMPO 1813/1817 FEW045CB

Osservazioni e previsioni meteorologiche di più di 4000 aeroporti (messaggi METAR e TAF).

Le stazioni disponibili sono rappresentate dai dischi gialli e rossi sulla carta.

Puntare il mouse per vedere il nome della stazione.

Clicca sopra per visualizzare le osservazioni e previsioni meteorologiche.

Per cambiare la mappa : fare clic sui pulsanti verdi con una croce nera per ingrandire, il pulsante verde con un trattino per diminuire, o sulla freccia verde per le mappe adiacenti.


METAR-TAF: